Time;durP1;ratioP1;P1;durP2;ratioP2;P2;SDS_P1;SDS_P2;PMS_P1;PMS_P2;Temp;Humidity;BMP_temperature;BMP_pressure;BME280_temperature;BME280_humidity;BME280_pressure;Samples;Min_cycle;Max_cycle;Signal;HPM_P1;HPM_P2
2023/01/08 00:02:00;;;;;;;4.22;2.75;;;;;;;;;;5026621;28;20049;-77
2023/01/08 00:04:26;;;;;;;5.70;2.80;;;;;;;;;;5019198;28;20412;-77
2023/01/08 00:06:52;;;;;;;5.95;3.28;;;;;;;;;;5024819;28;20042;-77
2023/01/08 00:09:18;;;;;;;5.28;3.45;;;;;;;;;;5032333;28;20064;-77
2023/01/08 00:11:44;;;;;;;4.80;3.42;;;;;;;;;;5020907;28;20058;-77
2023/01/08 00:14:11;;;;;;;6.13;3.88;;;;;;;;;;5016393;28;20385;-77
2023/01/08 00:16:37;;;;;;;6.18;3.90;;;;;;;;;;5031001;28;20044;-77
2023/01/08 00:19:03;;;;;;;6.15;4.50;;;;;;;;;;5022802;28;20038;-77
2023/01/08 00:21:29;;;;;;;6.82;5.55;;;;;;;;;;5022119;28;20050;-77
2023/01/08 00:23:55;;;;;;;7.55;5.80;;;;;;;;;;5018075;28;20442;-77
2023/01/08 00:26:21;;;;;;;6.45;5.13;;;;;;;;;;5018580;28;20049;-77
2023/01/08 00:28:47;;;;;;;5.88;5.18;;;;;;;;;;5019867;28;20103;-78
2023/01/08 00:31:13;;;;;;;7.28;5.15;;;;;;;;;;5036312;28;20049;-78
2023/01/08 00:33:40;;;;;;;5.80;4.82;;;;;;;;;;5036793;28;20064;-78
2023/01/08 00:36:07;;;;;;;7.10;5.07;;;;;;;;;;5024633;28;20038;-78
2023/01/08 00:38:33;;;;;;;8.13;5.57;;;;;;;;;;5025542;28;20407;-78
2023/01/08 00:40:59;;;;;;;7.30;5.00;;;;;;;;;;5015235;28;20037;-77
2023/01/08 00:43:25;;;;;;;9.35;5.32;;;;;;;;;;5017012;28;20499;-77
2023/01/08 00:45:52;;;;;;;6.80;5.25;;;;;;;;;;5024883;28;20038;-77
2023/01/08 00:48:18;;;;;;;7.53;5.05;;;;;;;;;;5034977;28;20057;-78
2023/01/08 00:50:44;;;;;;;6.68;4.82;;;;;;;;;;5015010;28;20090;-77
2023/01/08 00:53:10;;;;;;;7.95;5.75;;;;;;;;;;5017711;28;20083;-77
2023/01/08 00:55:37;;;;;;;5.95;5.22;;;;;;;;;;5030828;28;20042;-77
2023/01/08 00:58:03;;;;;;;6.93;4.95;;;;;;;;;;5015219;28;20038;-77
2023/01/08 01:00:29;;;;;;;4.85;4.28;;;;;;;;;;5014692;28;20125;-78
2023/01/08 01:02:55;;;;;;;8.50;4.63;;;;;;;;;;5039217;28;20117;-78
2023/01/08 01:05:21;;;;;;;6.43;4.20;;;;;;;;;;5030163;28;20073;-78
2023/01/08 01:07:47;;;;;;;6.43;3.83;;;;;;;;;;5021419;28;20074;-78
2023/01/08 01:10:14;;;;;;;6.65;3.90;;;;;;;;;;5034106;28;20045;-78
2023/01/08 01:12:40;;;;;;;6.57;3.65;;;;;;;;;;5034038;28;20096;-78
2023/01/08 01:15:07;;;;;;;4.93;3.33;;;;;;;;;;5029548;28;20057;-78
2023/01/08 01:17:34;;;;;;;6.88;2.95;;;;;;;;;;5013591;28;20042;-78
2023/01/08 01:20:00;;;;;;;5.78;3.42;;;;;;;;;;5015928;28;20079;-78
2023/01/08 01:22:26;;;;;;;8.88;3.05;;;;;;;;;;5017329;28;20041;-78
2023/01/08 01:24:52;;;;;;;7.53;2.92;;;;;;;;;;5017083;28;20038;-78
2023/01/08 01:27:18;;;;;;;5.43;2.60;;;;;;;;;;5014012;28;20132;-78
2023/01/08 01:29:44;;;;;;;6.82;3.10;;;;;;;;;;5028721;28;20077;-78
2023/01/08 01:32:10;;;;;;;8.23;2.70;;;;;;;;;;5033084;28;20076;-78
2023/01/08 01:34:36;;;;;;;6.30;3.10;;;;;;;;;;5030114;28;20485;-78
2023/01/08 01:37:03;;;;;;;8.93;2.70;;;;;;;;;;5017358;28;20098;-78
2023/01/08 01:39:30;;;;;;;5.60;2.30;;;;;;;;;;5033117;28;20073;-78
2023/01/08 01:41:56;;;;;;;5.85;2.42;;;;;;;;;;5029125;28;20045;-78
2023/01/08 01:44:36;;;;;;;7.63;2.50;;;;;;;;;;5015701;28;20076;-78
2023/01/08 01:47:03;;;;;;;8.18;2.60;;;;;;;;;;5013686;28;20365;-77
2023/01/08 01:49:30;;;;;;;5.47;2.50;;;;;;;;;;5015500;28;20125;-77
2023/01/08 01:52:01;;;;;;;6.85;2.60;;;;;;;;;;5033517;28;20087;-77
2023/01/08 01:54:27;;;;;;;7.25;2.10;;;;;;;;;;5033875;28;20049;-77
2023/01/08 01:56:53;;;;;;;8.48;2.80;;;;;;;;;;5033498;28;20041;-77
2023/01/08 01:59:19;;;;;;;4.88;2.60;;;;;;;;;;5017264;28;20080;-77
2023/01/08 02:01:49;;;;;;;6.97;2.75;;;;;;;;;;5016047;28;20050;-77
2023/01/08 02:04:15;;;;;;;6.45;3.10;;;;;;;;;;5014187;28;20045;-78
2023/01/08 02:06:48;;;;;;;6.47;3.28;;;;;;;;;;5014599;28;20108;-77
2023/01/08 02:09:19;;;;;;;16.67;3.67;;;;;;;;;;5028608;28;20077;-77
2023/01/08 02:12:15;;;;;;;8.80;3.20;;;;;;;;;;5013877;28;20377;-77
2023/01/08 02:14:38;;;;;;;7.82;3.20;;;;;;;;;;5020531;28;20060;-77
2023/01/08 02:17:09;;;;;;;6.85;2.95;;;;;;;;;;5022529;28;20053;-77
2023/01/08 02:19:35;;;;;;;7.78;2.75;;;;;;;;;;5014350;28;20041;-77
2023/01/08 02:22:21;;;;;;;6.63;2.90;;;;;;;;;;5029791;28;20043;-77
2023/01/08 02:24:53;;;;;;;6.22;2.72;;;;;;;;;;5002928;28;20104;-77
2023/01/08 02:27:20;;;;;;;8.63;3.53;;;;;;;;;;5013395;28;20056;-77
2023/01/08 02:29:47;;;;;;;8.73;2.83;;;;;;;;;;5013919;28;20041;-78
2023/01/08 02:32:13;;;;;;;8.05;2.92;;;;;;;;;;5031349;28;20046;-78
2023/01/08 02:34:39;;;;;;;9.10;3.55;;;;;;;;;;5028887;28;20120;-78
2023/01/08 02:37:05;;;;;;;7.90;3.15;;;;;;;;;;5013948;28;20065;-77
2023/01/08 02:39:50;;;;;;;7.75;3.35;;;;;;;;;;5012208;28;20534;-77
2023/01/08 02:42:29;;;;;;;7.60;2.95;;;;;;;;;;5013466;28;20473;-77
2023/01/08 02:44:55;;;;;;;8.48;3.15;;;;;;;;;;5020680;28;20104;-77
2023/01/08 02:47:33;;;;;;;8.50;3.10;;;;;;;;;;5017098;28;20496;-77
2023/01/08 02:50:12;;;;;;;5.80;2.70;;;;;;;;;;5017193;28;20052;-77
2023/01/08 02:52:42;;;;;;;9.40;2.97;;;;;;;;;;5025749;28;20045;-77
2023/01/08 02:55:09;;;;;;;8.10;3.00;;;;;;;;;;5032078;28;20042;-77
2023/01/08 02:57:35;;;;;;;13.57;3.22;;;;;;;;;;5017144;28;20508;-77
2023/01/08 03:00:01;;;;;;;12.75;2.72;;;;;;;;;;5020563;28;20085;-77
2023/01/08 03:02:30;;;;;;;8.77;2.90;;;;;;;;;;5036742;28;20037;-77
2023/01/08 03:04:59;;;;;;;5.88;2.80;;;;;;;;;;5018407;28;20050;-77
2023/01/08 03:07:25;;;;;;;11.02;2.72;;;;;;;;;;5018804;28;20488;-77
2023/01/08 03:09:52;;;;;;;10.70;3.03;;;;;;;;;;5018014;28;20042;-77
2023/01/08 03:12:20;;;;;;;10.95;2.72;;;;;;;;;;5020955;28;20046;-77
2023/01/08 03:14:50;;;;;;;9.25;2.70;;;;;;;;;;5017553;28;20121;-77
2023/01/08 03:17:22;;;;;;;11.60;3.15;;;;;;;;;;5017338;28;20046;-77
2023/01/08 03:19:55;;;;;;;14.68;3.15;;;;;;;;;;5036539;28;20048;-77
2023/01/08 03:22:22;;;;;;;12.65;2.97;;;;;;;;;;5035150;28;20049;-78
2023/01/08 03:24:53;;;;;;;10.40;3.30;;;;;;;;;;5031455;28;20050;-77
2023/01/08 03:27:22;;;;;;;9.45;2.92;;;;;;;;;;5019887;28;20077;-77
2023/01/08 03:29:50;;;;;;;8.73;3.03;;;;;;;;;;5035998;28;20550;-77
2023/01/08 03:32:16;;;;;;;12.20;2.80;;;;;;;;;;5031673;28;20041;-77
2023/01/08 03:34:44;;;;;;;12.25;2.95;;;;;;;;;;5030702;28;20054;-77
2023/01/08 03:37:11;;;;;;;11.05;3.13;;;;;;;;;;5019731;28;20559;-77
2023/01/08 03:39:49;;;;;;;12.32;2.97;;;;;;;;;;5018255;28;20113;-77
2023/01/08 03:42:16;;;;;;;12.77;2.88;;;;;;;;;;5017189;28;20129;-77
2023/01/08 03:44:42;;;;;;;15.25;3.22;;;;;;;;;;5017071;28;20125;-77
2023/01/08 03:47:09;;;;;;;8.80;3.00;;;;;;;;;;5017669;28;20046;-77
2023/01/08 03:49:36;;;;;;;10.80;3.03;;;;;;;;;;5017904;28;20038;-77
2023/01/08 03:52:02;;;;;;;10.32;3.05;;;;;;;;;;5017235;28;20038;-77
2023/01/08 03:54:30;;;;;;;12.77;3.00;;;;;;;;;;5025404;28;20476;-77
2023/01/08 03:56:57;;;;;;;8.82;2.90;;;;;;;;;;5035102;28;20157;-77
2023/01/08 03:59:23;;;;;;;12.73;2.60;;;;;;;;;;5025877;28;20053;-77
2023/01/08 04:01:49;;;;;;;12.23;2.90;;;;;;;;;;5031367;28;20538;-77
2023/01/08 04:04:16;;;;;;;9.20;2.80;;;;;;;;;;5036636;28;20135;-77
2023/01/08 04:06:42;;;;;;;12.07;2.80;;;;;;;;;;5030159;28;20049;-77
2023/01/08 04:09:08;;;;;;;12.23;2.80;;;;;;;;;;5020097;28;20045;-77
2023/01/08 04:11:34;;;;;;;10.68;3.15;;;;;;;;;;5017802;28;20045;-77
2023/01/08 04:14:00;;;;;;;13.20;3.47;;;;;;;;;;5017092;28;20385;-77
2023/01/08 04:16:26;;;;;;;12.32;2.80;;;;;;;;;;5017080;28;20049;-77
2023/01/08 04:18:52;;;;;;;7.88;2.90;;;;;;;;;;5033016;28;20492;-77
2023/01/08 04:21:18;;;;;;;8.57;2.85;;;;;;;;;;5030833;28;20046;-77
2023/01/08 04:23:44;;;;;;;10.50;3.35;;;;;;;;;;5023692;28;20466;-77
2023/01/08 04:26:10;;;;;;;8.73;2.85;;;;;;;;;;5031183;28;20048;-77
2023/01/08 04:28:36;;;;;;;6.80;3.08;;;;;;;;;;5024689;28;20396;-77
2023/01/08 04:31:06;;;;;;;6.13;2.90;;;;;;;;;;5018262;28;20046;-77
2023/01/08 04:33:32;;;;;;;8.48;3.10;;;;;;;;;;5026500;28;20049;-77
2023/01/08 04:35:59;;;;;;;7.68;3.20;;;;;;;;;;5018291;28;20042;-77
2023/01/08 04:38:25;;;;;;;7.60;3.53;;;;;;;;;;5018880;28;20073;-77
2023/01/08 04:40:55;;;;;;;10.65;3.85;;;;;;;;;;5028485;28;20041;-77
2023/01/08 04:43:21;;;;;;;6.93;3.10;;;;;;;;;;5036343;28;20395;-77
2023/01/08 04:45:50;;;;;;;8.48;3.60;;;;;;;;;;5034497;28;20053;-77
2023/01/08 04:48:16;;;;;;;8.13;3.33;;;;;;;;;;5018823;28;20046;-77
2023/01/08 04:50:42;;;;;;;10.18;3.25;;;;;;;;;;5025969;28;20048;-77
2023/01/08 04:53:08;;;;;;;8.18;3.13;;;;;;;;;;5026646;28;20110;-77
2023/01/08 04:55:34;;;;;;;10.05;3.35;;;;;;;;;;5040295;28;20042;-77
2023/01/08 04:58:00;;;;;;;10.85;3.65;;;;;;;;;;5027958;28;20073;-77
2023/01/08 05:00:27;;;;;;;8.60;3.17;;;;;;;;;;5028817;28;20042;-77
2023/01/08 05:02:53;;;;;;;10.07;3.38;;;;;;;;;;5017741;28;20050;-77
2023/01/08 05:05:19;;;;;;;9.85;3.05;;;;;;;;;;5023524;28;20109;-77
2023/01/08 05:07:45;;;;;;;10.43;3.20;;;;;;;;;;5033432;28;20080;-77
2023/01/08 05:10:11;;;;;;;5.90;3.03;;;;;;;;;;5027001;28;20042;-77
2023/01/08 05:12:37;;;;;;;7.47;3.03;;;;;;;;;;5026634;28;20058;-77
2023/01/08 05:15:03;;;;;;;5.82;3.40;;;;;;;;;;5015882;28;20084;-77
2023/01/08 05:17:29;;;;;;;10.95;3.35;;;;;;;;;;5014429;28;20061;-77
2023/01/08 05:19:55;;;;;;;6.10;3.42;;;;;;;;;;5022567;28;20041;-78
2023/01/08 05:22:21;;;;;;;10.73;3.40;;;;;;;;;;5031951;28;20041;-78
2023/01/08 05:24:47;;;;;;;7.65;2.90;;;;;;;;;;5020930;28;20133;-78
2023/01/08 05:27:13;;;;;;;9.15;3.10;;;;;;;;;;5033026;28;20069;-77
2023/01/08 05:29:39;;;;;;;7.93;3.35;;;;;;;;;;5020177;28;20524;-77
2023/01/08 05:32:06;;;;;;;5.07;2.72;;;;;;;;;;5002849;28;20420;-77
2023/01/08 05:34:32;;;;;;;6.85;3.33;;;;;;;;;;5024146;28;20046;-77
2023/01/08 05:36:58;;;;;;;10.25;3.10;;;;;;;;;;5018434;28;20044;-77
2023/01/08 05:39:24;;;;;;;5.85;2.90;;;;;;;;;;5032407;28;20037;-77
2023/01/08 05:41:50;;;;;;;4.43;2.70;;;;;;;;;;5032077;28;20041;-77
2023/01/08 05:44:16;;;;;;;6.78;3.22;;;;;;;;;;5028111;28;20041;-77
2023/01/08 05:46:42;;;;;;;6.88;2.90;;;;;;;;;;5025411;28;20041;-77
2023/01/08 05:49:08;;;;;;;6.55;2.78;;;;;;;;;;5033942;28;20045;-77
2023/01/08 05:51:34;;;;;;;6.75;3.47;;;;;;;;;;5023079;28;20037;-77
2023/01/08 05:54:00;;;;;;;5.82;3.08;;;;;;;;;;5014614;28;20052;-77
2023/01/08 05:56:26;;;;;;;7.80;3.00;;;;;;;;;;5023133;28;20381;-77
2023/01/08 05:58:55;;;;;;;5.47;3.25;;;;;;;;;;5028012;28;20046;-77
2023/01/08 06:01:22;;;;;;;5.32;2.92;;;;;;;;;;5014185;28;20354;-77
2023/01/08 06:03:48;;;;;;;6.05;3.00;;;;;;;;;;5027629;28;20046;-77
2023/01/08 06:06:15;;;;;;;6.85;3.05;;;;;;;;;;5014574;28;20048;-77
2023/01/08 06:08:41;;;;;;;8.85;3.75;;;;;;;;;;5017644;28;20124;-77
2023/01/08 06:11:08;;;;;;;4.90;2.80;;;;;;;;;;5033596;28;20131;-77
2023/01/08 06:13:36;;;;;;;8.02;2.92;;;;;;;;;;5016624;28;20058;-77
2023/01/08 06:16:03;;;;;;;7.45;2.85;;;;;;;;;;5014274;28;20171;-78
2023/01/08 06:18:29;;;;;;;7.30;3.08;;;;;;;;;;5014575;28;20124;-78
2023/01/08 06:20:56;;;;;;;5.57;2.67;;;;;;;;;;5018320;28;20096;-77
2023/01/08 06:23:22;;;;;;;5.78;3.10;;;;;;;;;;5020158;28;20395;-77
2023/01/08 06:25:55;;;;;;;4.70;2.88;;;;;;;;;;5018514;28;20100;-77
2023/01/08 06:28:21;;;;;;;5.65;2.60;;;;;;;;;;5020660;28;20045;-77
2023/01/08 06:30:47;;;;;;;7.30;2.90;;;;;;;;;;5033426;28;20046;-77
2023/01/08 06:33:13;;;;;;;8.50;3.00;;;;;;;;;;5023380;28;20038;-77
2023/01/08 06:35:39;;;;;;;5.68;3.00;;;;;;;;;;5036361;28;20061;-77
2023/01/08 06:38:06;;;;;;;7.85;3.03;;;;;;;;;;5030996;28;20066;-77
2023/01/08 06:40:32;;;;;;;8.20;2.75;;;;;;;;;;5018306;28;20042;-77
2023/01/08 06:43:02;;;;;;;7.38;2.65;;;;;;;;;;5020599;28;20081;-77
2023/01/08 06:45:28;;;;;;;4.60;2.63;;;;;;;;;;5037908;28;20511;-77
2023/01/08 06:47:54;;;;;;;6.82;2.47;;;;;;;;;;5030132;28;20114;-77
2023/01/08 06:50:20;;;;;;;5.18;2.63;;;;;;;;;;5036657;28;20515;-77
2023/01/08 06:52:53;;;;;;;8.68;2.50;;;;;;;;;;5024398;28;20204;-77
2023/01/08 06:55:19;;;;;;;6.97;2.70;;;;;;;;;;5018289;28;20078;-77
2023/01/08 06:57:45;;;;;;;11.07;3.00;;;;;;;;;;5018874;28;20050;-77
2023/01/08 07:00:11;;;;;;;6.03;2.40;;;;;;;;;;5020449;28;20042;-77
2023/01/08 07:02:37;;;;;;;7.82;2.60;;;;;;;;;;5018271;28;20041;-77
2023/01/08 07:05:03;;;;;;;8.85;2.78;;;;;;;;;;5018179;28;20050;-77
2023/01/08 07:07:29;;;;;;;7.03;2.75;;;;;;;;;;5021757;28;20123;-77
2023/01/08 07:09:55;;;;;;;6.45;2.60;;;;;;;;;;5023283;28;20464;-77
2023/01/08 07:12:22;;;;;;;7.93;2.50;;;;;;;;;;5032913;28;20072;-77
2023/01/08 07:14:48;;;;;;;5.90;2.90;;;;;;;;;;5030306;28;20053;-78
2023/01/08 07:17:14;;;;;;;7.25;2.50;;;;;;;;;;5017253;28;20049;-77
2023/01/08 07:19:42;;;;;;;10.00;3.20;;;;;;;;;;5025261;28;20046;-77
2023/01/08 07:22:08;;;;;;;6.13;2.60;;;;;;;;;;5022972;28;20053;-76
2023/01/08 07:24:34;;;;;;;9.13;2.53;;;;;;;;;;5019375;28;20037;-79
2023/01/08 07:27:00;;;;;;;6.63;2.75;;;;;;;;;;5033083;28;20103;-77
2023/01/08 07:29:26;;;;;;;9.77;3.20;;;;;;;;;;5023973;28;20509;-77
2023/01/08 07:31:53;;;;;;;9.95;2.58;;;;;;;;;;5035286;28;20046;-77
2023/01/08 07:34:19;;;;;;;9.13;2.85;;;;;;;;;;5032574;28;20068;-77
2023/01/08 07:36:45;;;;;;;7.97;2.80;;;;;;;;;;5020631;28;20140;-77
2023/01/08 07:39:11;;;;;;;7.47;2.67;;;;;;;;;;5044049;28;20053;-77
2023/01/08 07:41:37;;;;;;;7.45;2.67;;;;;;;;;;5017857;28;20052;-77
2023/01/08 07:44:03;;;;;;;8.40;2.40;;;;;;;;;;5029464;28;20105;-80
2023/01/08 07:46:29;;;;;;;9.80;2.60;;;;;;;;;;5036083;28;20492;-79
2023/01/08 07:48:56;;;;;;;9.55;2.90;;;;;;;;;;5038439;28;20080;-79
2023/01/08 07:51:22;;;;;;;7.88;2.60;;;;;;;;;;5038015;28;20099;-79
2023/01/08 07:53:50;;;;;;;8.85;2.85;;;;;;;;;;5019735;28;20109;-79
2023/01/08 07:56:16;;;;;;;9.80;3.47;;;;;;;;;;5019424;28;20041;-79
2023/01/08 07:58:42;;;;;;;9.15;2.67;;;;;;;;;;5019926;28;20194;-79
2023/01/08 08:01:09;;;;;;;8.40;2.92;;;;;;;;;;5019207;28;20164;-79
2023/01/08 08:03:37;;;;;;;12.40;3.10;;;;;;;;;;5018134;28;20050;-79
2023/01/08 08:06:03;;;;;;;6.28;3.05;;;;;;;;;;5018533;28;20459;-78
2023/01/08 08:08:29;;;;;;;6.90;3.40;;;;;;;;;;5016314;28;20052;-80
2023/01/08 08:10:55;;;;;;;10.52;3.67;;;;;;;;;;5036798;28;20072;-79
2023/01/08 08:13:21;;;;;;;7.88;3.50;;;;;;;;;;5037163;28;20079;-79
2023/01/08 08:15:47;;;;;;;10.43;3.97;;;;;;;;;;5020571;28;20049;-79
2023/01/08 08:18:13;;;;;;;9.90;4.18;;;;;;;;;;5034784;28;20095;-79
2023/01/08 08:20:39;;;;;;;10.63;5.45;;;;;;;;;;5017062;28;20124;-79
2023/01/08 08:23:07;;;;;;;7.47;4.00;;;;;;;;;;5014847;28;20382;-79
2023/01/08 08:25:33;;;;;;;7.85;4.10;;;;;;;;;;5015803;28;20088;-79
2023/01/08 08:28:00;;;;;;;8.98;4.45;;;;;;;;;;5015169;28;20373;-79
2023/01/08 08:30:26;;;;;;;9.85;3.92;;;;;;;;;;5034802;28;20580;-79
2023/01/08 08:32:53;;;;;;;9.73;4.45;;;;;;;;;;5035369;28;20052;-79
2023/01/08 08:35:20;;;;;;;9.20;4.75;;;;;;;;;;5029221;28;20048;-79
2023/01/08 08:37:46;;;;;;;7.53;4.13;;;;;;;;;;5016722;28;20049;-79
2023/01/08 08:40:12;;;;;;;7.30;4.47;;;;;;;;;;5015889;28;20082;-79
2023/01/08 08:42:38;;;;;;;7.78;4.40;;;;;;;;;;5016511;28;20117;-79
2023/01/08 08:45:04;;;;;;;7.78;4.18;;;;;;;;;;5020789;28;20104;-83
2023/01/08 08:47:30;;;;;;;9.60;4.20;;;;;;;;;;5018511;28;20504;-81
2023/01/08 08:49:56;;;;;;;7.38;3.85;;;;;;;;;;5034645;28;20083;-80
2023/01/08 08:52:22;;;;;;;6.50;4.32;;;;;;;;;;5015479;28;20042;-80
2023/01/08 08:54:48;;;;;;;10.20;4.00;;;;;;;;;;5013404;28;20104;-80
2023/01/08 08:57:14;;;;;;;7.55;4.00;;;;;;;;;;5014598;28;20053;-80
2023/01/08 08:59:42;;;;;;;9.05;3.97;;;;;;;;;;5026009;28;20049;-80
2023/01/08 09:02:09;;;;;;;10.13;4.25;;;;;;;;;;5018879;28;20081;-80
2023/01/08 09:04:35;;;;;;;8.00;3.60;;;;;;;;;;5013992;28;20050;-80
2023/01/08 09:07:01;;;;;;;7.85;3.83;;;;;;;;;;5014503;28;20046;-80
2023/01/08 09:09:28;;;;;;;8.07;3.70;;;;;;;;;;5034079;28;20080;-80
2023/01/08 09:11:54;;;;;;;8.02;3.58;;;;;;;;;;5034203;28;20049;-80
2023/01/08 09:14:20;;;;;;;10.88;3.83;;;;;;;;;;5023077;28;20053;-80
2023/01/08 09:16:47;;;;;;;6.93;3.40;;;;;;;;;;5013052;28;20382;-80
2023/01/08 09:19:13;;;;;;;10.18;3.70;;;;;;;;;;5026485;28;20501;-80
2023/01/08 09:21:39;;;;;;;8.13;3.30;;;;;;;;;;5014309;28;20049;-80
2023/01/08 09:24:05;;;;;;;8.40;3.70;;;;;;;;;;5014825;28;20081;-80
2023/01/08 09:26:31;;;;;;;8.23;3.42;;;;;;;;;;5013835;28;20412;-80
2023/01/08 09:28:58;;;;;;;8.15;3.38;;;;;;;;;;5022078;28;20052;-80
2023/01/08 09:31:24;;;;;;;7.75;3.22;;;;;;;;;;5013888;28;20121;-80
2023/01/08 09:33:50;;;;;;;7.90;3.42;;;;;;;;;;5031755;28;20128;-80
2023/01/08 09:36:17;;;;;;;11.05;3.15;;;;;;;;;;5034589;28;20416;-80
2023/01/08 09:38:43;;;;;;;7.10;2.88;;;;;;;;;;5034871;28;20045;-80
2023/01/08 09:41:16;;;;;;;8.80;3.00;;;;;;;;;;5016013;28;20054;-80
2023/01/08 09:43:44;;;;;;;8.43;3.50;;;;;;;;;;5015472;28;20400;-80
2023/01/08 09:46:11;;;;;;;9.15;2.88;;;;;;;;;;5015456;28;20056;-80
2023/01/08 09:48:38;;;;;;;7.82;3.28;;;;;;;;;;5014659;28;20516;-80
2023/01/08 09:51:06;;;;;;;8.43;3.08;;;;;;;;;;5018474;28;20100;-80
2023/01/08 09:53:32;;;;;;;11.38;3.00;;;;;;;;;;5017130;28;20100;-80
2023/01/08 09:56:00;;;;;;;5.78;2.90;;;;;;;;;;5002458;28;20496;-80
2023/01/08 09:58:39;;;;;;;9.32;3.67;;;;;;;;;;5020805;28;20042;-80
2023/01/08 10:01:06;;;;;;;9.77;3.50;;;;;;;;;;5020099;28;20484;-80
2023/01/08 10:03:43;;;;;;;9.27;3.42;;;;;;;;;;5020077;28;20559;-80
2023/01/08 10:06:10;;;;;;;9.15;3.15;;;;;;;;;;5028438;28;20046;-80
2023/01/08 10:08:36;;;;;;;9.90;2.90;;;;;;;;;;5033438;28;20084;-80
2023/01/08 10:11:03;;;;;;;12.63;3.22;;;;;;;;;;5019521;28;20080;-80
2023/01/08 10:13:29;;;;;;;8.65;3.08;;;;;;;;;;5027874;28;20201;-80
2023/01/08 10:15:55;;;;;;;8.13;2.85;;;;;;;;;;5027290;28;20053;-80
2023/01/08 10:18:23;;;;;;;6.22;3.13;;;;;;;;;;5025340;28;20128;-80
2023/01/08 10:20:49;;;;;;;10.07;3.83;;;;;;;;;;5027044;28;20046;-80
2023/01/08 10:23:16;;;;;;;8.65;2.90;;;;;;;;;;5013042;28;20042;-80
2023/01/08 10:25:48;;;;;;;9.20;3.42;;;;;;;;;;5037464;28;20052;-80
2023/01/08 10:28:22;;;;;;;10.02;3.30;;;;;;;;;;5039628;28;20073;-80
2023/01/08 10:30:49;;;;;;;9.55;3.17;;;;;;;;;;5038959;28;20442;-80
2023/01/08 10:33:18;;;;;;;8.50;3.22;;;;;;;;;;5039406;28;20395;-80
2023/01/08 10:35:50;;;;;;;11.02;3.10;;;;;;;;;;5028731;28;20046;-80
2023/01/08 10:38:43;;;;;;;8.77;2.80;;;;;;;;;;5020043;28;20143;-80
2023/01/08 10:41:10;;;;;;;10.00;3.45;;;;;;;;;;4996913;28;20525;-80
2023/01/08 10:43:42;;;;;;;8.10;3.35;;;;;;;;;;5021946;28;20511;-80
2023/01/08 10:46:14;;;;;;;7.30;3.00;;;;;;;;;;5017964;28;20127;-80
2023/01/08 10:48:45;;;;;;;8.80;2.83;;;;;;;;;;5019549;28;20065;-80
2023/01/08 10:51:16;;;;;;;6.85;2.80;;;;;;;;;;5021429;28;20077;-81
2023/01/08 10:53:42;;;;;;;8.88;2.78;;;;;;;;;;5023077;28;20045;-80
2023/01/08 10:56:25;;;;;;;12.68;4.90;;;;;;;;;;5019371;28;20050;-80
2023/01/08 10:58:52;;;;;;;5.70;2.63;;;;;;;;;;5019182;28;20092;-81
2023/01/08 11:01:28;;;;;;;7.10;2.58;;;;;;;;;;5027132;28;20117;-84
2023/01/08 11:03:57;;;;;;;10.65;2.80;;;;;;;;;;5028374;28;20120;-81
2023/01/08 11:06:28;;;;;;;6.93;2.88;;;;;;;;;;5020845;28;20046;-82
2023/01/08 11:08:56;;;;;;;9.13;3.10;;;;;;;;;;5026835;28;20045;-81
2023/01/08 11:11:23;;;;;;;6.13;2.70;;;;;;;;;;5022433;28;20054;-81
2023/01/08 11:13:53;;;;;;;8.25;2.42;;;;;;;;;;5024258;28;20058;-81
2023/01/08 11:16:19;;;;;;;9.27;3.10;;;;;;;;;;5031491;28;20046;-81
2023/01/08 11:18:50;;;;;;;9.85;2.92;;;;;;;;;;5033943;28;20115;-79
2023/01/08 11:21:24;;;;;;;7.95;2.60;;;;;;;;;;5019955;28;20045;-81
2023/01/08 11:24:09;;;;;;;8.90;2.80;;;;;;;;;;5024348;28;20049;-81
2023/01/08 11:26:36;;;;;;;8.52;2.80;;;;;;;;;;5024485;28;20042;-81
2023/01/08 11:29:08;;;;;;;12.93;2.85;;;;;;;;;;5036844;28;20042;-81
2023/01/08 11:31:49;;;;;;;10.65;2.80;;;;;;;;;;5038990;28;20053;-80
2023/01/08 11:34:18;;;;;;;9.45;3.28;;;;;;;;;;5039858;28;20064;-79
2023/01/08 11:37:07;;;;;;;9.52;2.85;;;;;;;;;;5026085;28;20050;-79
2023/01/08 11:39:34;;;;;;;7.38;2.80;;;;;;;;;;5027462;28;20080;-79
2023/01/08 11:42:06;;;;;;;12.85;3.30;;;;;;;;;;5039984;28;20120;-78
2023/01/08 11:44:43;;;;;;;7.50;2.58;;;;;;;;;;5040973;28;20049;-78
2023/01/08 11:47:24;;;;;;;7.30;2.47;;;;;;;;;;5041338;28;20128;-79
2023/01/08 11:50:00;;;;;;;9.02;2.50;;;;;;;;;;5040628;28;20053;-79
2023/01/08 11:52:26;;;;;;;11.25;2.60;;;;;;;;;;5027609;28;20092;-79
2023/01/08 11:54:52;;;;;;;13.25;3.70;;;;;;;;;;5021121;28;20046;-80
2023/01/08 11:57:37;;;;;;;11.35;2.80;;;;;;;;;;5027857;28;20042;-78
2023/01/08 12:00:24;;;;;;;11.52;3.08;;;;;;;;;;5035504;28;20045;-78
2023/01/08 12:03:04;;;;;;;7.32;2.38;;;;;;;;;;5007868;28;20120;-77
2023/01/08 12:05:36;;;;;;;11.98;3.13;;;;;;;;;;5013717;28;20102;-77
2023/01/08 12:08:03;;;;;;;8.88;3.10;;;;;;;;;;5029883;28;20045;-81
2023/01/08 12:10:29;;;;;;;8.43;2.67;;;;;;;;;;5032329;28;20133;-78
2023/01/08 12:13:06;;;;;;;12.20;3.45;;;;;;;;;;5016362;28;20185;-77
2023/01/08 12:15:51;;;;;;;13.75;3.60;;;;;;;;;;5015346;28;20528;-77
2023/01/08 12:18:17;;;;;;;10.13;3.70;;;;;;;;;;5014440;28;20049;-77
2023/01/08 12:21:02;;;;;;;9.13;3.28;;;;;;;;;;5015045;28;20050;-77
2023/01/08 12:23:45;;;;;;;10.27;3.38;;;;;;;;;;5014424;28;20039;-77
2023/01/08 12:26:37;;;;;;;11.10;3.28;;;;;;;;;;5015272;28;20101;-77
2023/01/08 12:29:14;;;;;;;10.77;4.07;;;;;;;;;;5001086;28;20052;-77
2023/01/08 12:31:44;;;;;;;14.98;4.85;;;;;;;;;;5015040;28;20484;-77
2023/01/08 12:34:16;;;;;;;11.70;3.55;;;;;;;;;;5013696;28;20561;-77
2023/01/08 12:36:44;;;;;;;13.10;3.55;;;;;;;;;;5022707;28;20045;-77
2023/01/08 12:39:18;;;;;;;9.65;3.58;;;;;;;;;;5026030;28;20081;-77
2023/01/08 12:41:45;;;;;;;13.30;3.50;;;;;;;;;;5015088;28;20469;-77
2023/01/08 12:44:12;;;;;;;13.18;3.45;;;;;;;;;;5014291;28;20054;-77
2023/01/08 12:46:48;;;;;;;10.13;3.20;;;;;;;;;;5013781;28;20046;-77
2023/01/08 12:49:17;;;;;;;11.13;3.25;;;;;;;;;;5022156;28;20045;-77
2023/01/08 12:51:46;;;;;;;10.60;4.15;;;;;;;;;;5033649;28;20050;-77
2023/01/08 12:54:20;;;;;;;12.10;4.05;;;;;;;;;;5025601;28;20049;-77
2023/01/08 12:56:52;;;;;;;13.43;3.30;;;;;;;;;;5016511;28;20473;-77
2023/01/08 12:59:24;;;;;;;9.93;3.50;;;;;;;;;;5033487;28;20369;-78
2023/01/08 13:02:00;;;;;;;12.80;3.50;;;;;;;;;;5014055;28;20034;-77
2023/01/08 13:04:26;;;;;;;12.93;4.00;;;;;;;;;;5016181;28;20512;-77
2023/01/08 13:07:03;;;;;;;10.52;3.13;;;;;;;;;;5032571;28;20474;-77
2023/01/08 13:09:29;;;;;;;10.20;3.50;;;;;;;;;;5031829;28;20081;-77
2023/01/08 13:11:56;;;;;;;11.55;3.67;;;;;;;;;;5033810;28;20041;-78
2023/01/08 13:14:23;;;;;;;10.10;3.78;;;;;;;;;;5033323;28;20057;-77
2023/01/08 13:17:00;;;;;;;9.52;3.70;;;;;;;;;;5014365;28;20065;-77
2023/01/08 13:19:28;;;;;;;8.88;3.72;;;;;;;;;;5013921;28;20473;-77
2023/01/08 13:21:55;;;;;;;8.48;3.88;;;;;;;;;;5034022;28;20496;-77
2023/01/08 13:24:34;;;;;;;13.00;3.92;;;;;;;;;;5032626;28;20623;-79
2023/01/08 13:27:16;;;;;;;13.27;4.78;;;;;;;;;;5031494;28;20037;-76
2023/01/08 13:29:49;;;;;;;10.57;4.30;;;;;;;;;;5019504;28;20052;-77
2023/01/08 13:32:24;;;;;;;8.93;3.75;;;;;;;;;;5022133;28;20523;-78
2023/01/08 13:35:20;;;;;;;10.63;4.10;;;;;;;;;;5013993;28;20065;-77
2023/01/08 13:37:48;;;;;;;10.23;3.67;;;;;;;;;;5010700;28;20419;-77
2023/01/08 13:40:32;;;;;;;11.38;4.05;;;;;;;;;;5023062;28;20053;-77
2023/01/08 13:42:59;;;;;;;9.05;3.72;;;;;;;;;;5015451;28;20126;-78
2023/01/08 13:45:27;;;;;;;11.75;3.75;;;;;;;;;;5016684;28;20050;-77
2023/01/08 13:47:54;;;;;;;11.95;3.70;;;;;;;;;;5019442;28;20100;-77
2023/01/08 13:50:25;;;;;;;9.55;4.10;;;;;;;;;;5033871;28;20080;-77
2023/01/08 13:53:01;;;;;;;10.55;4.20;;;;;;;;;;5033627;28;20049;-77
2023/01/08 13:55:27;;;;;;;;;;;;;;;;;;5028192;28;20076;-77
2023/01/08 13:57:55;;;;;;;7.57;3.80;;;;;;;;;;5015909;28;19948;-77
2023/01/08 14:00:23;;;;;;;9.07;3.45;;;;;;;;;;5013862;28;20104;-77
2023/01/08 14:02:50;;;;;;;9.88;3.80;;;;;;;;;;5013658;28;20041;-77
2023/01/08 14:05:21;;;;;;;8.60;3.90;;;;;;;;;;5014086;28;20081;-77
2023/01/08 14:07:47;;;;;;;10.85;4.00;;;;;;;;;;5013844;28;20056;-77
2023/01/08 14:10:14;;;;;;;7.82;3.42;;;;;;;;;;5014626;28;20042;-77
2023/01/08 14:12:40;;;;;;;13.52;4.13;;;;;;;;;;5032391;28;20057;-77
2023/01/08 14:15:25;;;;;;;7.60;4.10;;;;;;;;;;5023084;28;20125;-77
2023/01/08 14:17:52;;;;;;;10.10;3.80;;;;;;;;;;5029991;28;20056;-77
2023/01/08 14:20:29;;;;;;;8.73;4.00;;;;;;;;;;5013725;28;20046;-77
2023/01/08 14:22:55;;;;;;;8.15;3.75;;;;;;;;;;5013737;28;20140;-77
2023/01/08 14:25:22;;;;;;;28.67;18.10;;;;;;;;;;5025626;28;20045;-77
2023/01/08 14:27:55;;;;;;;17.23;10.40;;;;;;;;;;5030896;28;20042;-77
2023/01/08 14:30:21;;;;;;;12.68;6.05;;;;;;;;;;5032772;28;20210;-77
2023/01/08 14:32:47;;;;;;;12.27;6.50;;;;;;;;;;5020849;28;20066;-77
2023/01/08 14:35:16;;;;;;;9.57;4.18;;;;;;;;;;5013162;28;20046;-77
2023/01/08 14:37:42;;;;;;;16.33;7.75;;;;;;;;;;5021444;28;20475;-77
2023/01/08 14:40:15;;;;;;;10.43;7.10;;;;;;;;;;5020232;28;20573;-77
2023/01/08 14:42:43;;;;;;;20.38;13.57;;;;;;;;;;5035214;28;20069;-77
2023/01/08 14:45:23;;;;;;;15.75;8.60;;;;;;;;;;5036082;28;20045;-77
2023/01/08 14:47:50;;;;;;;8.32;4.95;;;;;;;;;;5035870;28;20127;-77